Time;durP1;ratioP1;P1;durP2;ratioP2;P2;SDS_P1;SDS_P2;PMS_P1;PMS_P2;Temp;Humidity;BMP_temperature;BMP_pressure;BME280_temperature;BME280_humidity;BME280_pressure;Samples;Min_cycle;Max_cycle;Signal;HPM_P1;HPM_P2
2021/12/13 00:01:58;;;;;;;9.85;8.20;;;4.70;99.90;;;;;;5078559;28;20025;-64
2021/12/13 00:04:38;;;;;;;9.52;7.90;;;4.70;99.90;;;;;;5060717;28;20397;-64
2021/12/13 00:07:14;;;;;;;10.02;8.45;;;4.80;99.90;;;;;;5072532;28;20025;-64
2021/12/13 00:09:44;;;;;;;9.10;7.65;;;4.80;99.90;;;;;;5072882;28;20101;-65
2021/12/13 00:12:10;;;;;;;8.95;7.88;;;4.80;99.90;;;;;;5072196;28;20016;-64
2021/12/13 00:14:48;;;;;;;10.38;7.90;;;4.80;99.90;;;;;;5072738;28;20105;-65
2021/12/13 00:17:41;;;;;;;9.85;7.85;;;4.80;99.90;;;;;;5072458;28;20507;-63
2021/12/13 00:20:15;;;;;;;9.20;7.60;;;4.80;99.90;;;;;;5072712;28;20025;-65
2021/12/13 00:22:46;;;;;;;9.43;7.05;;;4.80;99.90;;;;;;5072603;28;20024;-64
2021/12/13 00:25:20;;;;;;;9.60;7.33;;;4.80;99.90;;;;;;5071916;28;20032;-64
2021/12/13 00:27:56;;;;;;;8.75;7.10;;;4.80;99.90;;;;;;5072575;28;20021;-64
2021/12/13 00:30:46;;;;;;;9.38;7.22;;;4.80;99.90;;;;;;5071905;28;20025;-65
2021/12/13 00:33:53;;;;;;;9.10;7.30;;;4.80;99.90;;;;;;5071852;28;20028;-64
2021/12/13 00:36:33;;;;;;;8.60;6.80;;;4.90;99.90;;;;;;5009551;28;20117;-65
2021/12/13 00:39:18;;;;;;;9.10;7.13;;;4.90;99.90;;;;;;5069942;28;20040;-65
2021/12/13 00:42:04;;;;;;;10.18;6.65;;;4.90;99.90;;;;;;5092636;28;20032;-65
2021/12/13 00:44:39;;;;;;;9.07;6.25;;;4.90;99.90;;;;;;5091873;28;20314;-65
2021/12/13 00:47:13;;;;;;;8.60;6.75;;;4.90;99.90;;;;;;5092137;28;20051;-65
2021/12/13 00:49:44;;;;;;;7.10;6.32;;;4.90;99.90;;;;;;5092487;28;20028;-65
2021/12/13 00:52:15;;;;;;;8.75;7.22;;;4.90;99.90;;;;;;5092553;28;20027;-65
2021/12/13 00:54:41;;;;;;;7.53;6.43;;;4.90;99.90;;;;;;5092470;28;20036;-65
2021/12/13 00:57:38;;;;;;;9.73;6.93;;;5.00;99.90;;;;;;5092071;28;20134;-65
2021/12/13 01:00:14;;;;;;;10.25;6.95;;;5.00;99.90;;;;;;5089073;28;20020;-65
2021/12/13 01:02:46;;;;;;;7.53;6.43;;;5.00;99.90;;;;;;5092068;28;20022;-65
2021/12/13 01:05:26;;;;;;;7.78;6.38;;;5.00;99.90;;;;;;5091743;28;20549;-65
2021/12/13 01:08:01;;;;;;;7.20;5.88;;;5.00;99.90;;;;;;5092171;28;20031;-65
2021/12/13 01:10:39;;;;;;;7.40;5.93;;;5.00;99.90;;;;;;5091305;28;20031;-64
2021/12/13 01:13:39;;;;;;;8.70;7.00;;;5.10;99.90;;;;;;5091987;28;20461;-65
2021/12/13 01:16:33;;;;;;;8.15;6.50;;;5.10;99.90;;;;;;5092046;28;20142;-65
2021/12/13 01:19:30;;;;;;;8.70;6.60;;;5.10;99.90;;;;;;5091971;28;20031;-65
2021/12/13 01:22:23;;;;;;;8.38;6.22;;;5.10;99.90;;;;;;5087549;28;20119;-64
2021/12/13 01:27:26;;;;;;;9.52;6.97;;;5.10;99.90;;;;;;5091274;28;20052;-64
2021/12/13 01:29:52;;;;;;;8.88;6.32;;;5.10;99.90;;;;;;5092157;28;20028;-65
2021/12/13 01:32:18;;;;;;;8.68;6.55;;;5.10;99.90;;;;;;5091277;28;20395;-66
2021/12/13 01:34:46;;;;;;;9.18;6.82;;;5.10;99.90;;;;;;5091917;28;20036;-65
2021/12/13 01:37:15;;;;;;;8.18;6.65;;;5.20;99.90;;;;;;5091960;28;20381;-64
2021/12/13 01:39:47;;;;;;;11.43;7.25;;;5.10;99.90;;;;;;5091782;28;20024;-65
2021/12/13 01:42:16;;;;;;;9.63;7.15;;;5.10;99.90;;;;;;5091996;28;20042;-64
2021/12/13 01:44:46;;;;;;;13.40;7.13;;;5.20;99.90;;;;;;5091421;28;20044;-65
2021/12/13 01:47:40;;;;;;;8.60;6.97;;;5.10;99.90;;;;;;5091656;28;20123;-64
2021/12/13 01:50:31;;;;;;;10.80;7.75;;;5.10;99.90;;;;;;5089467;28;20040;-65
2021/12/13 01:52:58;;;;;;;9.30;7.10;;;5.20;99.90;;;;;;5091452;28;20505;-65
2021/12/13 01:55:26;;;;;;;12.02;7.93;;;5.20;99.90;;;;;;5090699;28;20495;-65
2021/12/13 01:58:19;;;;;;;8.35;7.20;;;5.20;99.90;;;;;;5091246;28;20594;-64
2021/12/13 02:01:29;;;;;;;10.23;7.50;;;5.20;99.90;;;;;;5094081;28;20052;-65
2021/12/13 02:03:52;;;;;;;9.43;7.30;;;5.20;99.90;;;;;;5088906;28;20432;-65
2021/12/13 02:06:39;;;;;;;9.07;7.13;;;5.20;99.90;;;;;;5095010;28;20028;-65
2021/12/13 02:09:21;;;;;;;10.95;7.65;;;5.20;99.90;;;;;;5095658;28;20027;-65
2021/12/13 02:11:51;;;;;;;9.10;7.32;;;5.20;99.90;;;;;;5095901;28;20047;-65
2021/12/13 02:14:21;;;;;;;10.23;7.88;;;5.20;99.90;;;;;;5094935;28;20129;-65
2021/12/13 02:17:00;;;;;;;9.55;7.32;;;5.20;99.90;;;;;;5095495;28;20361;-65
2021/12/13 02:19:43;;;;;;;8.35;7.45;;;5.20;99.90;;;;;;5094649;28;20062;-65
2021/12/13 02:22:40;;;;;;;9.38;7.18;;;5.20;99.90;;;;;;5095411;28;20020;-65
2021/12/13 02:25:24;;;;;;;8.13;7.03;;;5.20;99.90;;;;;;5095037;28;20467;-64
2021/12/13 02:27:59;;;;;;;8.25;6.28;;;5.20;99.90;;;;;;5095184;28;20073;-64
2021/12/13 02:30:41;;;;;;;9.65;6.90;;;5.20;99.90;;;;;;5094284;28;20048;-64
2021/12/13 02:33:11;;;;;;;7.10;6.18;;;5.20;99.90;;;;;;5094981;28;20028;-64
2021/12/13 02:35:43;;;;;;;8.35;7.20;;;5.20;99.90;;;;;;5094036;28;20085;-65
2021/12/13 02:38:10;;;;;;;7.65;6.10;;;5.20;99.90;;;;;;5094868;28;20024;-65
2021/12/13 02:40:36;;;;;;;8.68;6.50;;;5.30;99.90;;;;;;5094264;28;20468;-65
2021/12/13 02:43:06;;;;;;;7.63;5.93;;;5.20;99.90;;;;;;5094746;28;20028;-65
2021/12/13 02:45:43;;;;;;;6.20;5.55;;;5.20;99.90;;;;;;5093755;28;20538;-65
2021/12/13 02:48:32;;;;;;;7.10;5.82;;;5.20;99.90;;;;;;5094344;28;20098;-65
2021/12/13 02:51:10;;;;;;;5.82;5.18;;;5.20;99.90;;;;;;5094781;28;20028;-64
2021/12/13 02:53:41;;;;;;;6.18;5.57;;;5.30;99.90;;;;;;5090670;28;20016;-64
2021/12/13 02:56:09;;;;;;;6.07;4.85;;;5.20;99.90;;;;;;5074028;28;20032;-64
2021/12/13 02:58:38;;;;;;;7.57;5.50;;;5.20;99.90;;;;;;5073359;28;20060;-65
2021/12/13 03:01:37;;;;;;;5.63;5.03;;;5.20;99.90;;;;;;5073934;28;20520;-65
2021/12/13 03:04:06;;;;;;;6.85;5.03;;;5.30;99.90;;;;;;5062306;28;20449;-65
2021/12/13 03:06:38;;;;;;;6.22;4.68;;;5.20;99.90;;;;;;5073553;28;20032;-66
2021/12/13 03:09:10;;;;;;;5.38;4.82;;;5.20;99.90;;;;;;5073717;28;20480;-65
2021/12/13 03:11:36;;;;;;;5.45;4.60;;;5.20;99.90;;;;;;5073463;28;20115;-65
2021/12/13 03:14:09;;;;;;;4.30;3.83;;;5.20;99.90;;;;;;5073880;28;20043;-65
2021/12/13 03:17:00;;;;;;;4.50;4.10;;;5.20;99.90;;;;;;5073077;28;20039;-65
2021/12/13 03:19:59;;;;;;;4.88;4.40;;;5.20;99.90;;;;;;5073431;28;20029;-65
2021/12/13 03:22:46;;;;;;;4.47;3.38;;;5.20;99.90;;;;;;5073196;28;20038;-65
2021/12/13 03:25:37;;;;;;;3.70;3.22;;;5.20;99.90;;;;;;5073757;28;20068;-64
2021/12/13 03:28:31;;;;;;;5.65;3.42;;;5.20;99.90;;;;;;5073831;28;20024;-65
2021/12/13 03:31:26;;;;;;;4.00;3.60;;;5.20;99.90;;;;;;5073554;28;20518;-67
2021/12/13 03:33:51;;;;;;;3.42;3.13;;;5.10;99.90;;;;;;5072142;28;20515;-65
2021/12/13 03:36:43;;;;;;;5.18;3.33;;;5.10;99.90;;;;;;5073566;28;20131;-64
2021/12/13 03:39:12;;;;;;;3.50;3.20;;;5.00;99.90;;;;;;5073277;28;20484;-65
2021/12/13 03:41:42;;;;;;;3.15;2.85;;;5.00;99.90;;;;;;5072823;28;20089;-65
2021/12/13 03:44:12;;;;;;;3.67;3.25;;;5.00;99.90;;;;;;5073060;28;20149;-65
2021/12/13 03:46:40;;;;;;;3.42;3.13;;;5.00;99.90;;;;;;5072407;28;20040;-64
2021/12/13 03:49:08;;;;;;;3.47;3.17;;;5.00;99.90;;;;;;5073327;28;20242;-65
2021/12/13 03:51:38;;;;;;;4.35;3.30;;;5.00;99.90;;;;;;5075030;28;20024;-63
2021/12/13 03:54:07;;;;;;;2.63;2.42;;;5.00;99.90;;;;;;5072332;28;20037;-64
2021/12/13 03:56:38;;;;;;;2.80;2.60;;;4.90;99.90;;;;;;5091048;28;20051;-64
2021/12/13 03:59:09;;;;;;;;;;;4.90;99.90;;;;;;5093911;28;20110;-64
2021/12/13 04:01:49;;;;;;;2.70;2.50;;;4.90;99.90;;;;;;5092759;28;19995;-64
2021/12/13 04:04:22;;;;;;;2.63;2.40;;;4.90;99.90;;;;;;5093166;28;20039;-64
2021/12/13 04:06:51;;;;;;;4.35;2.45;;;4.90;99.90;;;;;;5089470;28;20021;-64
2021/12/13 04:09:19;;;;;;;2.30;2.10;;;4.80;99.90;;;;;;5082522;28;20169;-64
2021/12/13 04:11:45;;;;;;;2.50;2.30;;;4.80;99.90;;;;;;5082930;28;20036;-63
2021/12/13 04:14:21;;;;;;;3.30;2.30;;;4.80;99.90;;;;;;5086980;28;20085;-65
2021/12/13 04:17:04;;;;;;;2.97;2.08;;;4.80;99.90;;;;;;5080681;28;20024;-64
2021/12/13 04:19:51;;;;;;;2.38;2.17;;;4.80;99.90;;;;;;5079300;28;20070;-65
2021/12/13 04:22:20;;;;;;;2.33;2.13;;;4.80;99.90;;;;;;5085642;28;20057;-65
2021/12/13 04:24:58;;;;;;;2.33;2.05;;;4.80;99.90;;;;;;5092277;28;20028;-65
2021/12/13 04:27:34;;;;;;;2.40;2.20;;;4.80;99.90;;;;;;5092852;28;20058;-64
2021/12/13 04:30:14;;;;;;;2.00;1.80;;;4.70;99.90;;;;;;5089240;28;20047;-64
2021/12/13 04:32:45;;;;;;;2.50;2.00;;;4.80;99.90;;;;;;5088382;28;20040;-65
2021/12/13 04:35:12;;;;;;;2.55;2.35;;;4.80;99.90;;;;;;5092496;28;20034;-65
2021/12/13 04:37:45;;;;;;;2.00;1.83;;;4.80;99.90;;;;;;5091846;28;20082;-65
2021/12/13 04:40:21;;;;;;;2.22;2.03;;;4.80;99.90;;;;;;5092211;28;20052;-64
2021/12/13 04:43:15;;;;;;;2.40;2.20;;;4.80;99.90;;;;;;5091611;28;20027;-64
2021/12/13 04:45:45;;;;;;;2.22;2.03;;;4.80;99.90;;;;;;5078188;28;20044;-64
2021/12/13 04:48:18;;;;;;;2.60;2.40;;;4.80;99.90;;;;;;5081505;28;20044;-65
2021/12/13 04:51:01;;;;;;;3.08;2.45;;;4.80;99.90;;;;;;5080245;28;20122;-65
2021/12/13 04:53:40;;;;;;;2.20;2.00;;;4.80;99.90;;;;;;5082642;28;20514;-64
2021/12/13 04:56:10;;;;;;;2.65;2.40;;;4.80;99.90;;;;;;5082999;28;20024;-65
2021/12/13 04:58:37;;;;;;;3.28;2.53;;;4.80;99.90;;;;;;5080931;28;20020;-64
2021/12/13 05:01:06;;;;;;;6.50;2.85;;;4.90;99.90;;;;;;5088279;28;20052;-65
2021/12/13 05:03:37;;;;;;;2.63;2.35;;;4.90;99.90;;;;;;5090615;28;20036;-64
2021/12/13 05:06:13;;;;;;;2.78;2.53;;;4.80;99.90;;;;;;5090037;28;20020;-64
2021/12/13 05:08:39;;;;;;;3.50;2.70;;;4.90;99.90;;;;;;5090634;28;20071;-64
2021/12/13 05:11:08;;;;;;;2.85;2.60;;;4.90;99.90;;;;;;5091029;28;20031;-64
2021/12/13 05:13:49;;;;;;;2.60;2.40;;;4.90;99.90;;;;;;5090633;28;20132;-64
2021/12/13 05:16:18;;;;;;;2.78;2.58;;;4.90;99.90;;;;;;5091083;28;20025;-64
2021/12/13 05:18:51;;;;;;;3.33;3.03;;;4.90;99.90;;;;;;5087530;28;20036;-64
2021/12/13 05:21:28;;;;;;;3.20;2.47;;;4.90;99.90;;;;;;5085492;28;20039;-65
2021/12/13 05:23:58;;;;;;;3.17;2.88;;;5.00;99.90;;;;;;5090250;28;20036;-64
2021/12/13 05:26:52;;;;;;;2.67;2.22;;;5.00;99.90;;;;;;5090960;28;20064;-65
2021/12/13 05:29:24;;;;;;;2.40;2.20;;;5.00;99.90;;;;;;5083136;28;20032;-65
2021/12/13 05:31:59;;;;;;;2.80;2.60;;;5.00;99.90;;;;;;5090050;28;20020;-64
2021/12/13 05:34:33;;;;;;;2.63;2.42;;;5.00;99.90;;;;;;5089651;28;20032;-65
2021/12/13 05:37:01;;;;;;;2.60;2.40;;;5.00;99.90;;;;;;5090758;28;20024;-65
2021/12/13 05:39:27;;;;;;;2.70;2.50;;;5.00;99.90;;;;;;5089547;28;20020;-65
2021/12/13 05:42:03;;;;;;;2.70;2.50;;;4.90;99.90;;;;;;5088735;28;20051;-65
2021/12/13 05:44:33;;;;;;;3.03;2.80;;;4.90;99.90;;;;;;5089142;28;20036;-65
2021/12/13 05:47:01;;;;;;;3.28;2.50;;;5.00;99.90;;;;;;5045615;28;1130763;-64
2021/12/13 05:49:31;;;;;;;3.00;2.70;;;5.00;99.90;;;;;;5084357;28;20027;-65
2021/12/13 05:52:14;;;;;;;2.55;2.35;;;5.00;99.90;;;;;;5085080;28;20027;-64
2021/12/13 05:54:44;;;;;;;5.93;2.80;;;5.00;99.90;;;;;;5090575;28;20442;-65
2021/12/13 05:57:25;;;;;;;2.40;2.20;;;5.00;99.90;;;;;;5089843;28;20051;-64
2021/12/13 05:59:50;;;;;;;2.55;2.10;;;5.00;99.90;;;;;;5082908;28;20372;-65
2021/12/13 06:02:46;;;;;;;2.35;2.15;;;5.00;99.90;;;;;;5091333;28;20020;-65
2021/12/13 06:05:26;;;;;;;6.35;2.38;;;5.00;99.90;;;;;;5091166;28;20039;-64
2021/12/13 06:07:55;;;;;;;2.70;2.40;;;5.00;99.90;;;;;;5090523;28;20030;-64
2021/12/13 06:10:21;;;;;;;2.60;2.40;;;5.00;99.90;;;;;;5090240;28;20076;-64
2021/12/13 06:13:00;;;;;;;2.35;2.10;;;5.00;99.90;;;;;;5089730;28;20439;-66
2021/12/13 06:15:28;;;;;;;2.42;2.22;;;5.00;99.90;;;;;;5091002;28;20078;-67
2021/12/13 06:17:56;;;;;;;3.25;2.58;;;5.00;99.90;;;;;;5090355;28;20057;-66
2021/12/13 06:20:28;;;;;;;2.97;2.22;;;5.00;99.90;;;;;;5090930;28;20020;-66
2021/12/13 06:23:12;;;;;;;3.40;2.38;;;5.00;99.90;;;;;;5090605;28;20534;-67
2021/12/13 06:25:41;;;;;;;2.63;2.40;;;5.00;99.90;;;;;;5090550;28;20116;-66
2021/12/13 06:28:16;;;;;;;2.30;2.10;;;5.00;99.90;;;;;;5091663;28;20036;-66
2021/12/13 06:30:42;;;;;;;2.33;2.13;;;5.00;99.90;;;;;;5090576;28;20380;-66
2021/12/13 06:33:11;;;;;;;2.63;2.00;;;5.00;99.90;;;;;;5091178;28;20161;-66
2021/12/13 06:35:51;;;;;;;3.30;2.42;;;5.00;99.90;;;;;;5090229;28;20043;-65
2021/12/13 06:38:19;;;;;;;2.83;2.17;;;5.00;99.90;;;;;;5091419;28;20103;-66
2021/12/13 06:41:12;;;;;;;2.60;1.98;;;5.00;99.90;;;;;;5090562;28;20035;-66
2021/12/13 06:44:06;;;;;;;4.20;1.92;;;5.00;99.90;;;;;;5090658;28;20449;-66
2021/12/13 06:46:34;;;;;;;1.77;1.65;;;5.00;99.90;;;;;;5094624;28;20101;-66
2021/12/13 06:49:43;;;;;;;1.88;1.60;;;5.00;99.90;;;;;;5094037;28;20456;-67
2021/12/13 06:52:11;;;;;;;2.65;2.00;;;5.00;99.90;;;;;;5083315;28;20036;-67
2021/12/13 06:54:37;;;;;;;4.50;2.10;;;5.00;99.90;;;;;;5094629;28;20064;-66
2021/12/13 06:57:06;;;;;;;2.10;1.83;;;5.00;99.90;;;;;;5094034;28;20035;-66
2021/12/13 06:59:36;;;;;;;1.83;1.73;;;5.00;99.90;;;;;;5094419;28;20488;-66
2021/12/13 07:02:15;;;;;;;3.15;2.33;;;5.00;99.90;;;;;;5094076;28;20021;-66
2021/12/13 07:04:53;;;;;;;2.67;2.35;;;5.00;99.90;;;;;;5090528;28;20044;-67
2021/12/13 07:07:22;;;;;;;2.42;2.10;;;5.00;99.90;;;;;;5094489;28;20069;-67
2021/12/13 07:09:55;;;;;;;3.42;2.53;;;5.00;99.90;;;;;;5093517;28;20039;-66
2021/12/13 07:12:23;;;;;;;2.92;2.38;;;5.00;99.90;;;;;;5094361;28;20031;-67
2021/12/13 07:14:49;;;;;;;4.78;2.90;;;5.00;99.90;;;;;;5093628;28;20104;-67
2021/12/13 07:17:28;;;;;;;4.47;3.08;;;5.00;99.90;;;;;;5094243;28;20024;-66
2021/12/13 07:19:59;;;;;;;3.88;2.80;;;5.00;99.90;;;;;;5093705;28;20032;-67
2021/12/13 07:22:29;;;;;;;3.78;2.85;;;5.00;99.90;;;;;;5094230;28;20115;-66
2021/12/13 07:25:06;;;;;;;4.28;3.78;;;5.00;99.90;;;;;;5093339;28;20039;-67
2021/12/13 07:27:35;;;;;;;5.45;3.97;;;5.00;99.90;;;;;;5094254;28;20483;-66
2021/12/13 07:30:09;;;;;;;11.00;4.15;;;5.00;99.90;;;;;;5093477;28;20319;-67
2021/12/13 07:32:41;;;;;;;8.23;4.45;;;5.10;99.90;;;;;;5093529;28;20120;-66
2021/12/13 07:35:16;;;;;;;4.95;4.43;;;5.10;99.90;;;;;;5093679;28;20035;-67
2021/12/13 07:37:58;;;;;;;4.72;4.30;;;5.10;99.90;;;;;;5093256;28;20027;-67
2021/12/13 07:40:35;;;;;;;5.07;4.68;;;5.10;99.90;;;;;;5093742;28;20059;-67
2021/12/13 07:43:28;;;;;;;5.20;4.70;;;5.10;99.90;;;;;;5093135;28;20020;-66
2021/12/13 07:46:05;;;;;;;7.30;4.85;;;5.10;99.90;;;;;;5093038;28;20040;-66
2021/12/13 07:48:31;;;;;;;6.43;4.38;;;5.20;99.90;;;;;;5093700;28;20075;-67
2021/12/13 07:51:20;;;;;;;5.13;4.60;;;5.20;99.90;;;;;;5092946;28;20437;-66
2021/12/13 07:53:58;;;;;;;4.25;3.85;;;5.10;99.90;;;;;;5092973;28;20024;-67
2021/12/13 07:56:33;;;;;;;4.78;4.30;;;5.10;99.90;;;;;;5092412;28;20492;-67
2021/12/13 07:59:01;;;;;;;5.13;4.57;;;5.10;99.90;;;;;;5092692;28;20020;-66
2021/12/13 08:01:31;;;;;;;5.10;4.60;;;5.20;99.90;;;;;;5092924;28;20038;-66
2021/12/13 08:04:08;;;;;;;4.50;3.80;;;5.20;99.90;;;;;;5092168;28;20342;-66
2021/12/13 08:06:48;;;;;;;4.35;3.85;;;5.20;99.90;;;;;;5085544;28;20021;-67
2021/12/13 08:09:21;;;;;;;4.15;3.60;;;5.20;99.90;;;;;;5073045;28;20047;-67
2021/12/13 08:11:53;;;;;;;4.28;3.88;;;5.20;99.90;;;;;;5072497;28;20040;-67
2021/12/13 08:14:36;;;;;;;4.70;4.00;;;5.20;99.90;;;;;;5072916;28;20035;-67
2021/12/13 08:17:18;;;;;;;4.38;3.45;;;5.20;99.90;;;;;;5072269;28;20036;-67
2021/12/13 08:19:51;;;;;;;4.68;3.85;;;5.20;99.90;;;;;;5072880;28;20024;-67
2021/12/13 08:22:19;;;;;;;7.30;3.80;;;5.30;99.90;;;;;;5073145;28;20104;-67
2021/12/13 08:24:51;;;;;;;4.00;3.60;;;5.30;99.90;;;;;;5072595;28;20032;-67
2021/12/13 08:27:24;;;;;;;3.17;2.72;;;5.30;99.90;;;;;;5072824;28;20102;-66
2021/12/13 08:29:50;;;;;;;3.10;2.80;;;5.30;99.90;;;;;;5072084;28;20033;-66
2021/12/13 08:32:21;;;;;;;2.55;2.30;;;5.30;99.90;;;;;;5072265;28;20476;-66
2021/12/13 08:34:57;;;;;;;3.88;2.88;;;5.30;99.90;;;;;;5071894;28;20029;-66
2021/12/13 08:37:54;;;;;;;3.05;2.60;;;5.30;99.90;;;;;;5072469;28;20107;-67
2021/12/13 08:40:24;;;;;;;2.63;2.25;;;5.30;99.90;;;;;;5062906;28;20041;-67
2021/12/13 08:42:53;;;;;;;2.85;2.15;;;5.30;99.90;;;;;;5071761;28;20035;-67
2021/12/13 08:45:27;;;;;;;2.40;1.92;;;5.30;99.90;;;;;;5072025;28;20032;-66
2021/12/13 08:48:07;;;;;;;2.40;2.20;;;5.30;99.90;;;;;;5071740;28;20105;-67
2021/12/13 08:50:41;;;;;;;2.15;1.95;;;5.30;99.90;;;;;;5072202;28;20123;-66
2021/12/13 08:53:12;;;;;;;2.92;2.10;;;5.30;99.90;;;;;;5071726;28;20098;-67
2021/12/13 08:55:43;;;;;;;3.92;2.20;;;5.40;99.90;;;;;;5071885;28;20085;-67
2021/12/13 08:58:17;;;;;;;2.38;1.98;;;5.40;99.90;;;;;;5071456;28;20032;-67
2021/12/13 09:01:00;;;;;;;3.05;2.28;;;5.40;99.90;;;;;;5072010;28;20024;-66
2021/12/13 09:03:45;;;;;;;10.18;3.45;;;5.40;99.90;;;;;;5073509;28;20461;-67
2021/12/13 09:06:20;;;;;;;2.30;2.10;;;5.40;99.90;;;;;;5070049;28;20341;-67
2021/12/13 09:09:09;;;;;;;3.80;2.03;;;5.40;99.90;;;;;;5071627;28;20021;-67
2021/12/13 09:11:55;;;;;;;2.63;2.20;;;5.50;99.90;;;;;;5071751;28;20073;-67
2021/12/13 09:14:23;;;;;;;2.47;2.15;;;5.50;99.90;;;;;;5071897;28;20101;-67
2021/12/13 09:16:54;;;;;;;2.45;2.17;;;5.50;99.90;;;;;;5071192;28;20024;-67
2021/12/13 09:19:49;;;;;;;2.77;2.00;;;5.50;99.90;;;;;;5071855;28;20100;-67
2021/12/13 09:22:25;;;;;;;2.20;1.90;;;5.50;99.90;;;;;;5065912;28;20039;-67
2021/12/13 09:25:13;;;;;;;2.30;2.08;;;5.50;99.90;;;;;;5071048;28;20033;-66
2021/12/13 09:27:41;;;;;;;3.10;2.30;;;5.60;99.90;;;;;;5071493;28;20028;-67
2021/12/13 09:30:25;;;;;;;3.95;2.50;;;5.60;99.90;;;;;;5070476;28;20115;-67
2021/12/13 09:33:03;;;;;;;2.72;2.25;;;5.60;99.90;;;;;;5071075;28;20036;-66
2021/12/13 09:35:48;;;;;;;2.30;2.10;;;5.70;99.90;;;;;;5071543;28;20083;-66
2021/12/13 09:38:28;;;;;;;5.47;2.20;;;5.70;99.90;;;;;;5070934;28;20425;-66
2021/12/13 09:41:02;;;;;;;2.90;2.53;;;5.70;99.90;;;;;;5070881;28;20115;-66
2021/12/13 09:43:58;;;;;;;2.85;2.38;;;5.70;99.90;;;;;;5071347;28;20036;-66
2021/12/13 09:46:36;;;;;;;2.42;2.22;;;5.80;99.90;;;;;;5071368;28;20048;-67
2021/12/13 09:49:06;;;;;;;2.60;2.17;;;5.80;99.90;;;;;;5070934;28;20107;-67
2021/12/13 09:51:41;;;;;;;4.23;2.00;;;5.90;99.90;;;;;;5071873;28;20095;-67
2021/12/13 09:54:11;;;;;;;2.80;2.50;;;5.90;99.90;;;;;;5070524;28;20381;-66
2021/12/13 09:56:49;;;;;;;6.43;2.38;;;5.90;99.90;;;;;;5071248;28;20033;-67
2021/12/13 09:59:24;;;;;;;2.22;2.03;;;6.00;99.90;;;;;;5068984;28;20040;-67
2021/12/13 10:01:51;;;;;;;2.20;2.00;;;6.00;99.90;;;;;;5071028;28;20044;-66
2021/12/13 10:04:30;;;;;;;2.08;1.88;;;6.00;99.90;;;;;;5071297;28;20024;-67
2021/12/13 10:07:07;;;;;;;2.42;2.10;;;6.00;99.90;;;;;;5070758;28;20037;-67
2021/12/13 10:09:37;;;;;;;2.78;2.00;;;6.10;99.90;;;;;;5071262;28;20032;-67
2021/12/13 10:12:19;;;;;;;2.17;1.73;;;6.10;99.90;;;;;;5073419;28;20296;-67
2021/12/13 10:15:13;;;;;;;2.22;1.80;;;6.10;99.90;;;;;;5071163;28;20035;-66
2021/12/13 10:17:44;;;;;;;3.38;2.22;;;6.10;99.90;;;;;;5069888;28;20465;-67
2021/12/13 10:20:18;;;;;;;1.58;1.45;;;6.10;99.90;;;;;;5071718;28;20025;-66
2021/12/13 10:22:45;;;;;;;2.85;1.77;;;6.20;99.90;;;;;;5073749;28;20036;-67
2021/12/13 10:25:33;;;;;;;1.63;1.52;;;6.20;99.90;;;;;;5073825;28;20031;-66
2021/12/13 10:28:03;;;;;;;1.70;1.60;;;6.20;99.90;;;;;;5074082;28;20086;-67
2021/12/13 10:30:36;;;;;;;2.95;2.00;;;6.20;99.90;;;;;;5074783;28;20098;-67
2021/12/13 10:33:04;;;;;;;3.65;1.98;;;6.20;99.90;;;;;;5074111;28;20378;-66
2021/12/13 10:35:34;;;;;;;4.63;1.80;;;6.20;99.90;;;;;;5074425;28;20438;-67
2021/12/13 10:38:06;;;;;;;1.63;1.42;;;6.30;99.90;;;;;;5074028;28;20416;-67
2021/12/13 10:40:41;;;;;;;2.90;1.92;;;6.20;99.90;;;;;;5074729;28;20024;-67
2021/12/13 10:43:12;;;;;;;2.80;1.60;;;6.30;99.90;;;;;;5074058;28;20037;-67
2021/12/13 10:45:44;;;;;;;2.47;1.58;;;6.30;99.90;;;;;;5073300;28;20037;-66
2021/12/13 10:48:14;;;;;;;2.17;1.73;;;6.30;99.90;;;;;;5074316;28;20045;-67
2021/12/13 10:50:49;;;;;;;1.83;1.60;;;6.30;99.90;;;;;;5074784;28;20036;-66
2021/12/13 10:53:18;;;;;;;2.10;1.50;;;6.30;99.90;;;;;;5073687;28;20043;-66
2021/12/13 10:55:51;;;;;;;2.55;1.40;;;6.30;99.90;;;;;;5074651;28;20041;-67
2021/12/13 10:58:23;;;;;;;3.47;1.50;;;6.20;99.90;;;;;;5073715;28;20111;-67
2021/12/13 11:00:59;;;;;;;1.70;1.50;;;6.20;99.90;;;;;;5074159;28;20472;-69
2021/12/13 11:03:29;;;;;;;1.98;1.33;;;6.20;99.90;;;;;;5074062;28;20025;-67
2021/12/13 11:05:57;;;;;;;2.28;1.60;;;6.20;99.90;;;;;;5073827;28;20039;-66
2021/12/13 11:08:25;;;;;;;2.58;1.90;;;6.20;99.90;;;;;;5074093;28;20021;-66
2021/12/13 11:10:51;;;;;;;1.98;1.70;;;6.10;99.90;;;;;;5073897;28;20055;-66
2021/12/13 11:13:17;;;;;;;3.50;1.77;;;6.10;99.90;;;;;;5075567;28;20457;-66
2021/12/13 11:15:51;;;;;;;2.15;1.88;;;6.10;99.90;;;;;;5074119;28;20039;-67
2021/12/13 11:18:26;;;;;;;3.78;1.73;;;6.10;99.90;;;;;;5073020;28;20067;-66
2021/12/13 11:20:52;;;;;;;5.43;2.70;;;6.10;99.90;;;;;;5073911;28;20070;-67
2021/12/13 11:23:21;;;;;;;3.95;2.00;;;6.10;99.90;;;;;;5072912;28;20100;-67
2021/12/13 11:25:51;;;;;;;2.80;1.98;;;6.10;99.90;;;;;;5073727;28;20564;-68
2021/12/13 11:28:18;;;;;;;3.63;1.70;;;6.10;99.90;;;;;;5073440;28;20024;-67
2021/12/13 11:30:46;;;;;;;1.98;1.80;;;6.10;99.90;;;;;;5073756;28;20055;-67
2021/12/13 11:33:22;;;;;;;15.93;11.82;;;6.10;99.90;;;;;;5073082;28;20029;-67
2021/12/13 11:36:22;;;;;;;2.20;2.00;;;6.10;99.90;;;;;;5073637;28;20398;-67
2021/12/13 11:39:18;;;;;;;5.47;2.10;;;6.10;99.90;;;;;;5073651;28;20059;-67
2021/12/13 11:41:53;;;;;;;2.78;1.95;;;6.10;99.90;;;;;;5072250;28;20418;-66
2021/12/13 11:44:35;;;;;;;2.15;1.55;;;6.10;99.90;;;;;;5072751;28;20116;-67
2021/12/13 11:47:30;;;;;;;3.30;2.08;;;6.10;99.90;;;;;;5072594;28;20044;-67
2021/12/13 11:50:14;;;;;;;2.05;1.88;;;6.10;99.90;;;;;;5037051;28;20029;-66
2021/12/13 11:53:07;;;;;;;4.85;2.08;;;6.10;99.90;;;;;;5073629;28;20032;-67
2021/12/13 11:56:22;;;;;;;3.53;1.75;;;6.10;99.90;;;;;;5073336;28;20040;-67
2021/12/13 11:59:07;;;;;;;4.68;1.92;;;6.10;99.90;;;;;;5072935;28;20020;-68
2021/12/13 12:02:14;;;;;;;3.78;1.85;;;6.10;99.90;;;;;;5073008;28;20483;-67
2021/12/13 12:05:23;;;;;;;2.10;1.90;;;6.10;99.90;;;;;;4991320;28;20065;-66
2021/12/13 12:08:14;;;;;;;1.73;1.50;;;6.00;99.90;;;;;;5072694;28;20146;-67
2021/12/13 12:11:00;;;;;;;2.47;1.90;;;6.00;99.90;;;;;;5072983;28;20024;-67
2021/12/13 12:13:51;;;;;;;3.35;2.15;;;6.00;99.90;;;;;;5072181;28;20090;-67
2021/12/13 12:16:25;;;;;;;3.13;1.85;;;6.00;99.90;;;;;;5072093;28;20476;-66
2021/12/13 12:18:53;;;;;;;3.28;2.20;;;6.00;99.90;;;;;;5087193;28;20480;-66
2021/12/13 12:21:46;;;;;;;4.55;2.30;;;6.00;99.90;;;;;;5092400;28;20115;-67
2021/12/13 12:24:20;;;;;;;6.45;2.78;;;6.00;99.90;;;;;;5092338;28;20373;-67
2021/12/13 12:26:55;;;;;;;4.90;1.67;;;5.90;99.90;;;;;;5092691;28;20482;-66
2021/12/13 12:29:26;;;;;;;2.83;2.08;;;5.90;99.90;;;;;;5092298;28;20054;-67
2021/12/13 12:32:08;;;;;;;3.75;2.13;;;5.90;99.90;;;;;;5092627;28;20380;-66
2021/12/13 12:34:50;;;;;;;4.10;2.00;;;5.90;99.90;;;;;;5092949;28;20396;-67
2021/12/13 12:37:30;;;;;;;3.60;2.05;;;5.90;99.90;;;;;;5092185;28;20368;-67
2021/12/13 12:40:08;;;;;;;4.43;2.10;;;5.90;99.90;;;;;;5092628;28;20460;-66
2021/12/13 12:42:45;;;;;;;4.47;2.20;;;5.90;99.90;;;;;;5091839;28;20209;-67
2021/12/13 12:45:34;;;;;;;3.05;2.50;;;5.90;99.90;;;;;;5092059;28;20036;-66
2021/12/13 12:48:30;;;;;;;4.22;2.22;;;5.90;99.90;;;;;;5092632;28;20087;-67
2021/12/13 12:50:57;;;;;;;7.50;2.45;;;5.90;99.90;;;;;;5092445;28;20020;-66
2021/12/13 12:53:49;;;;;;;4.90;2.40;;;5.90;99.90;;;;;;5090200;28;20028;-67
2021/12/13 12:56:20;;;;;;;3.38;2.10;;;5.90;99.90;;;;;;5090541;28;20024;-67
2021/12/13 12:58:54;;;;;;;7.32;2.17;;;5.80;99.90;;;;;;5092302;28;20028;-67
2021/12/13 13:01:27;;;;;;;6.05;1.80;;;5.80;99.90;;;;;;5091613;28;20108;-66
2021/12/13 13:04:16;;;;;;;14.98;3.28;;;5.80;99.90;;;;;;5092161;28;20473;-68
2021/12/13 13:07:09;;;;;;;2.67;2.05;;;5.80;99.90;;;;;;5092178;28;20031;-66
2021/12/13 13:09:58;;;;;;;4.43;1.80;;;5.80;99.90;;;;;;5088571;28;20024;-68
2021/12/13 13:12:31;;;;;;;3.17;1.88;;;5.80;99.90;;;;;;5083036;28;20094;-68
2021/12/13 13:14:58;;;;;;;1.70;1.60;;;5.80;99.90;;;;;;5092251;28;20445;-67
2021/12/13 13:17:27;;;;;;;2.22;1.95;;;5.80;99.90;;;;;;5091409;28;20032;-67
2021/12/13 13:20:16;;;;;;;3.22;2.03;;;5.90;99.90;;;;;;5091772;28;20032;-67
2021/12/13 13:22:45;;;;;;;3.55;1.92;;;5.90;99.90;;;;;;5082482;28;20078;-67
2021/12/13 13:25:22;;;;;;;2.17;1.92;;;5.90;99.90;;;;;;5091328;28;20074;-67
2021/12/13 13:27:49;;;;;;;3.22;1.90;;;5.90;99.90;;;;;;5092114;28;20025;-67
2021/12/13 13:30:24;;;;;;;3.88;2.03;;;5.90;99.90;;;;;;5091275;28;20024;-67
2021/12/13 13:32:50;;;;;;;2.28;2.08;;;5.90;99.90;;;;;;5091675;28;20027;-67
2021/12/13 13:35:34;;;;;;;3.30;2.10;;;5.90;99.90;;;;;;5091182;28;20028;-66
2021/12/13 13:38:00;;;;;;;2.35;2.03;;;5.90;99.90;;;;;;5091823;28;20024;-66
2021/12/13 13:40:30;;;;;;;2.30;1.98;;;5.90;99.90;;;;;;5091178;28;20036;-66
2021/12/13 13:43:04;;;;;;;3.03;2.20;;;5.90;99.90;;;;;;5091467;28;20556;-66
2021/12/13 13:45:57;;;;;;;2.42;2.03;;;5.90;99.90;;;;;;5090844;28;20036;-66
2021/12/13 13:48:33;;;;;;;2.38;2.08;;;5.90;99.90;;;;;;5088354;28;20365;-66
2021/12/13 13:51:03;;;;;;;3.65;3.13;;;5.90;99.90;;;;;;5092023;28;20104;-67